Time;durP1;ratioP1;P1;durP2;ratioP2;P2;SDS_P1;SDS_P2;PMS_P1;PMS_P2;Temp;Humidity;BMP_temperature;BMP_pressure;BME280_temperature;BME280_humidity;BME280_pressure;Samples;Min_cycle;Max_cycle;Signal;HPM_P1;HPM_P2
2023/10/14 00:01:52;;;;;;;7.85;4.85;;;;;;;;;;5063586;23;20445;-66
2023/10/14 00:04:52;;;;;;;7.68;4.50;;;;;;;;;;5011999;28;20411;-73
2023/10/14 00:07:19;;;;;;;10.15;4.60;;;;;;;;;;5013329;28;20096;-73
2023/10/14 00:09:49;;;;;;;12.23;4.53;;;;;;;;;;5013897;28;20444;-73
2023/10/14 00:12:53;;;;;;;7.63;4.60;;;;;;;;;;5031942;23;20050;-73
2023/10/14 00:15:19;;;;;;;6.40;4.47;;;;;;;;;;5011505;28;20052;-73
2023/10/14 00:18:03;;;;;;;5.95;4.43;;;;;;;;;;5013615;28;20061;-66
2023/10/14 00:20:34;;;;;;;4.85;4.30;;;;;;;;;;5014540;28;20072;-66
2023/10/14 00:23:00;;;;;;;6.35;4.38;;;;;;;;;;5014290;28;20033;-68
2023/10/14 00:25:25;;;;;;;8.65;4.50;;;;;;;;;;5014067;28;20053;-68
2023/10/14 00:27:50;;;;;;;7.45;4.28;;;;;;;;;;4996704;28;20074;-69
2023/10/14 00:30:19;;;;;;;7.15;4.18;;;;;;;;;;4995843;28;20050;-69
2023/10/14 00:32:45;;;;;;;5.03;4.45;;;;;;;;;;5013698;28;20038;-69
2023/10/14 00:35:11;;;;;;;10.35;4.95;;;;;;;;;;5014134;28;20430;-67
2023/10/14 00:37:37;;;;;;;9.20;4.53;;;;;;;;;;5013643;28;20126;-67
2023/10/14 00:40:11;;;;;;;4.78;4.15;;;;;;;;;;4996004;28;20120;-66
2023/10/14 00:42:44;;;;;;;4.80;4.18;;;;;;;;;;5051216;23;20059;-73
2023/10/14 00:45:11;;;;;;;6.93;4.30;;;;;;;;;;5050654;28;20116;-73
2023/10/14 00:47:45;;;;;;;4.80;4.30;;;;;;;;;;5051977;28;20041;-73
2023/10/14 00:50:44;;;;;;;6.03;4.15;;;;;;;;;;4971785;28;20042;-73
2023/10/14 00:53:05;;;;;;;5.65;4.00;;;;;;;;;;4974250;28;20497;-73
2023/10/14 00:58:23;;;;;;;6.38;4.47;;;;;;;;;;5038277;28;20077;-74
2023/10/14 01:00:59;;;;;;;6.85;3.97;;;;;;;;;;5038199;28;20045;-74
2023/10/14 01:03:31;;;;;;;7.10;4.43;;;;;;;;;;4977045;28;20047;-74
2023/10/14 01:05:57;;;;;;;7.35;4.25;;;;;;;;;;4971719;28;20411;-74
2023/10/14 01:08:26;;;;;;;7.97;4.18;;;;;;;;;;5038757;28;20027;-74
2023/10/14 01:10:52;;;;;;;6.85;4.40;;;;;;;;;;5049253;28;20029;-74
2023/10/14 01:13:22;;;;;;;6.90;3.97;;;;;;;;;;5015532;28;20088;-73
2023/10/14 01:15:51;;;;;;;6.53;3.90;;;;;;;;;;5038151;28;20047;-74
2023/10/14 01:18:17;;;;;;;9.70;3.88;;;;;;;;;;5021515;28;20084;-74
2023/10/14 01:20:42;;;;;;;8.18;4.28;;;;;;;;;;4971486;28;20106;-73
2023/10/14 01:23:10;;;;;;;6.13;3.75;;;;;;;;;;4971495;28;20039;-73
2023/10/14 01:25:43;;;;;;;7.18;4.07;;;;;;;;;;4971701;28;20038;-73
2023/10/14 01:28:12;;;;;;;5.00;3.92;;;;;;;;;;4974219;28;20038;-73
2023/10/14 01:31:06;;;;;;;5.30;4.13;;;;;;;;;;5023114;28;20118;-73
2023/10/14 01:33:35;;;;;;;7.63;4.15;;;;;;;;;;4974663;28;20459;-73
2023/10/14 01:36:01;;;;;;;6.47;4.10;;;;;;;;;;5041208;28;20030;-73
2023/10/14 01:38:27;;;;;;;5.47;3.83;;;;;;;;;;4974321;28;20035;-73
2023/10/14 01:40:55;;;;;;;8.20;4.00;;;;;;;;;;5040759;28;20382;-73
2023/10/14 01:43:24;;;;;;;7.38;4.25;;;;;;;;;;5008697;28;20085;-74
2023/10/14 01:48:44;;;;;;;7.15;3.92;;;;;;;;;;5093653;28;20517;-73
2023/10/14 01:51:06;;;;;;;5.22;3.55;;;;;;;;;;5057674;28;20402;-73
2023/10/14 01:53:32;;;;;;;6.90;3.88;;;;;;;;;;5075929;28;20037;-73
2023/10/14 01:55:59;;;;;;;8.65;4.00;;;;;;;;;;5076083;28;20086;-73
2023/10/14 01:58:29;;;;;;;8.38;4.15;;;;;;;;;;5057817;28;20497;-76
2023/10/14 02:00:58;;;;;;;6.72;3.65;;;;;;;;;;5075785;28;20040;-75
2023/10/14 02:03:24;;;;;;;8.13;3.78;;;;;;;;;;5075837;28;20108;-74
2023/10/14 02:05:51;;;;;;;8.00;3.95;;;;;;;;;;5057793;28;20490;-73
2023/10/14 02:08:21;;;;;;;6.82;4.10;;;;;;;;;;5057684;28;20082;-73
2023/10/14 02:10:47;;;;;;;5.85;3.53;;;;;;;;;;5075646;28;20498;-73
2023/10/14 02:13:14;;;;;;;6.57;3.80;;;;;;;;;;5075863;28;20083;-73
2023/10/14 02:15:39;;;;;;;5.75;3.50;;;;;;;;;;5075464;28;20127;-73
2023/10/14 02:18:05;;;;;;;4.28;3.25;;;;;;;;;;5054635;28;20070;-74
2023/10/14 02:20:37;;;;;;;7.97;3.47;;;;;;;;;;5096280;28;20369;-73
2023/10/14 02:23:04;;;;;;;6.07;3.13;;;;;;;;;;5077460;28;20414;-73
2023/10/14 02:25:31;;;;;;;4.95;3.33;;;;;;;;;;5077528;28;20032;-73
2023/10/14 02:27:57;;;;;;;5.65;3.20;;;;;;;;;;5082929;28;20041;-73
2023/10/14 02:30:23;;;;;;;9.10;3.88;;;;;;;;;;5075270;28;20047;-73
2023/10/14 02:32:48;;;;;;;5.32;3.80;;;;;;;;;;5058677;28;20050;-74
2023/10/14 02:35:15;;;;;;;7.30;3.70;;;;;;;;;;5077148;28;20048;-74
2023/10/14 02:37:41;;;;;;;8.30;4.10;;;;;;;;;;5077271;23;20110;-74
2023/10/14 02:40:16;;;;;;;6.65;4.20;;;;;;;;;;5075206;22;20495;-72
2023/10/14 02:42:41;;;;;;;9.55;3.97;;;;;;;;;;5057075;28;20060;-72
2023/10/14 02:45:12;;;;;;;10.18;4.13;;;;;;;;;;5075178;28;20064;-72
2023/10/14 02:47:39;;;;;;;6.53;3.88;;;;;;;;;;5056812;28;20475;-72
2023/10/14 02:50:11;;;;;;;4.95;3.88;;;;;;;;;;5056882;28;20044;-72
2023/10/14 02:52:40;;;;;;;9.73;3.92;;;;;;;;;;5057244;28;20036;-72
2023/10/14 02:55:21;;;;;;;6.68;3.63;;;;;;;;;;5056710;28;20078;-73
2023/10/14 02:57:47;;;;;;;5.82;4.10;;;;;;;;;;5056815;28;20116;-75
2023/10/14 03:00:17;;;;;;;5.18;3.22;;;;;;;;;;5056702;28;20469;-76
2023/10/14 03:02:48;;;;;;;5.40;3.20;;;;;;;;;;5056739;28;20047;-76
2023/10/14 03:05:32;;;;;;;6.82;3.15;;;;;;;;;;5056646;28;20114;-75
2023/10/14 03:08:06;;;;;;;3.67;2.95;;;;;;;;;;5056609;28;20037;-74
2023/10/14 03:10:35;;;;;;;7.32;2.88;;;;;;;;;;5074704;28;20086;-73
2023/10/14 03:13:00;;;;;;;5.88;2.78;;;;;;;;;;5056497;28;20040;-75
2023/10/14 03:15:30;;;;;;;5.80;2.60;;;;;;;;;;5056423;28;20059;-75
2023/10/14 03:17:58;;;;;;;6.73;2.90;;;;;;;;;;5056368;28;20486;-75
2023/10/14 03:20:34;;;;;;;6.82;2.60;;;;;;;;;;5074529;28;20676;-74
2023/10/14 03:23:04;;;;;;;6.85;3.13;;;;;;;;;;5056379;28;20128;-74
2023/10/14 03:25:29;;;;;;;5.13;2.60;;;;;;;;;;5056348;28;20039;-74
2023/10/14 03:28:00;;;;;;;7.82;3.03;;;;;;;;;;5056489;28;20075;-73
2023/10/14 03:30:26;;;;;;;4.80;2.85;;;;;;;;;;5074400;28;20045;-75
2023/10/14 03:32:52;;;;;;;7.60;3.17;;;;;;;;;;5056189;28;20084;-73
2023/10/14 03:35:21;;;;;;;4.68;3.22;;;;;;;;;;5056113;28;20068;-73
2023/10/14 03:37:53;;;;;;;5.28;3.28;;;;;;;;;;5056718;28;20037;-75
2023/10/14 03:42:54;;;;;;;4.20;2.70;;;;;;;;;;5073922;28;20036;-73
2023/10/14 03:45:28;;;;;;;3.90;2.80;;;;;;;;;;5074441;28;20040;-71
2023/10/14 03:47:59;;;;;;;10.68;3.38;;;;;;;;;;5074128;28;20044;-73
2023/10/14 03:50:25;;;;;;;7.93;3.33;;;;;;;;;;5056109;28;20036;-72
2023/10/14 03:52:53;;;;;;;7.18;3.13;;;;;;;;;;5074067;28;20032;-75
2023/10/14 03:55:24;;;;;;;5.00;2.90;;;;;;;;;;5056112;28;20071;-74
2023/10/14 03:57:51;;;;;;;6.63;3.05;;;;;;;;;;5073707;28;20466;-73
2023/10/14 04:00:25;;;;;;;6.43;2.63;;;;;;;;;;5056083;28;20054;-72
2023/10/14 04:02:51;;;;;;;4.07;2.67;;;;;;;;;;5055710;28;20146;-75
2023/10/14 04:05:19;;;;;;;7.97;3.10;;;;;;;;;;5073873;28;20059;-73
2023/10/14 04:07:44;;;;;;;5.50;2.95;;;;;;;;;;5073870;28;20479;-73
2023/10/14 04:10:11;;;;;;;4.72;3.20;;;;;;;;;;5055613;28;20090;-75
2023/10/14 04:12:37;;;;;;;3.88;2.97;;;;;;;;;;5055583;28;20376;-73
2023/10/14 04:17:40;;;;;;;7.55;3.00;;;;;;;;;;5073803;28;20056;-74
2023/10/14 04:25:19;;;;;;;5.15;3.00;;;;;;;;;;5073707;28;20060;-74
2023/10/14 04:30:42;;;;;;;5.75;3.05;;;;;;;;;;5073548;28;20036;-72
2023/10/14 04:33:19;;;;;;;6.53;3.40;;;;;;;;;;5072791;28;20029;-73
2023/10/14 04:38:42;;;;;;;5.78;3.10;;;;;;;;;;5032818;28;20029;-73
2023/10/14 04:41:14;;;;;;;3.58;2.75;;;;;;;;;;5055118;28;20098;-73
2023/10/14 04:46:16;;;;;;;5.45;2.60;;;;;;;;;;5072633;28;20049;-72
2023/10/14 04:48:50;;;;;;;6.25;3.22;;;;;;;;;;5054821;28;20052;-73
2023/10/14 04:51:18;;;;;;;4.88;2.92;;;;;;;;;;5072974;28;20037;-66
2023/10/14 04:53:45;;;;;;;6.68;3.30;;;;;;;;;;5038282;28;20037;-73
2023/10/14 04:56:11;;;;;;;9.90;3.40;;;;;;;;;;5051588;28;20040;-73
2023/10/14 04:58:40;;;;;;;7.68;3.20;;;;;;;;;;5052993;28;20033;-72
2023/10/14 05:01:09;;;;;;;5.82;3.35;;;;;;;;;;5053239;28;20048;-71
2023/10/14 05:03:34;;;;;;;7.75;3.15;;;;;;;;;;5039018;28;20044;-72
2023/10/14 05:08:44;;;;;;;7.47;3.20;;;;;;;;;;5039468;28;20103;-65
2023/10/14 05:11:12;;;;;;;4.40;3.38;;;;;;;;;;5056225;28;20072;-65
2023/10/14 05:14:34;;;;;;;6.78;3.65;;;;;;;;;;5067841;28;20024;-65
2023/10/14 05:16:26;;;;;;;6.10;3.40;;;;;;;;;;5068061;28;20052;-74
2023/10/14 05:19:00;;;;;;;7.90;4.38;;;;;;;;;;5040300;28;20483;-74
2023/10/14 05:21:44;;;;;;;7.93;4.00;;;;;;;;;;5056363;28;20033;-73
2023/10/14 05:24:10;;;;;;;7.40;4.38;;;;;;;;;;5060952;28;20111;-73
2023/10/14 05:26:36;;;;;;;6.35;4.00;;;;;;;;;;5071746;28;20047;-72
2023/10/14 05:29:19;;;;;;;7.57;4.43;;;;;;;;;;5062591;28;20028;-73
2023/10/14 05:31:49;;;;;;;9.77;4.10;;;;;;;;;;5076113;28;20467;-74
2023/10/14 05:34:17;;;;;;;8.20;4.43;;;;;;;;;;5075977;28;20040;-73
2023/10/14 05:36:43;;;;;;;6.63;4.10;;;;;;;;;;5053520;28;20040;-74
2023/10/14 05:39:10;;;;;;;9.88;4.05;;;;;;;;;;5055512;28;20025;-74
2023/10/14 05:41:36;;;;;;;8.68;3.92;;;;;;;;;;5056018;28;20056;-75
2023/10/14 05:44:03;;;;;;;11.48;4.07;;;;;;;;;;5038037;28;20521;-75
2023/10/14 05:46:29;;;;;;;8.23;3.95;;;;;;;;;;5021256;28;20047;-76
2023/10/14 05:48:56;;;;;;;5.78;3.80;;;;;;;;;;5055570;28;20116;-75
2023/10/14 05:51:22;;;;;;;10.90;4.18;;;;;;;;;;5037472;28;20040;-75
2023/10/14 05:53:48;;;;;;;6.38;3.90;;;;;;;;;;5055614;28;20059;-74
2023/10/14 05:56:17;;;;;;;8.45;4.45;;;;;;;;;;5055426;28;20087;-74
2023/10/14 05:58:42;;;;;;;6.97;4.25;;;;;;;;;;5055495;28;20037;-75
2023/10/14 06:01:09;;;;;;;10.18;3.90;;;;;;;;;;5055720;28;20087;-74
2023/10/14 06:03:38;;;;;;;6.78;4.40;;;;;;;;;;5038697;28;20033;-75
2023/10/14 06:06:09;;;;;;;10.23;4.82;;;;;;;;;;5057110;28;20048;-70
2023/10/14 06:08:36;;;;;;;9.98;4.93;;;;;;;;;;5055555;28;20116;-70
2023/10/14 06:11:01;;;;;;;10.63;5.10;;;;;;;;;;5055389;28;20043;-70
2023/10/14 06:13:27;;;;;;;7.43;5.32;;;;;;;;;;5019352;28;20487;-71
2023/10/14 06:15:53;;;;;;;10.02;6.75;;;;;;;;;;5065254;28;20037;-71
2023/10/14 06:18:19;;;;;;;8.45;6.40;;;;;;;;;;5075273;28;20385;-71
2023/10/14 06:20:49;;;;;;;13.02;6.47;;;;;;;;;;5075136;28;20043;-71
2023/10/14 06:23:15;;;;;;;9.27;5.78;;;;;;;;;;5074795;28;20037;-71
2023/10/14 06:25:41;;;;;;;12.15;5.20;;;;;;;;;;5048160;28;20044;-71
2023/10/14 06:28:07;;;;;;;9.93;6.00;;;;;;;;;;5055148;28;20043;-70
2023/10/14 06:30:33;;;;;;;10.15;5.68;;;;;;;;;;5054800;28;20128;-71
2023/10/14 06:33:03;;;;;;;8.55;4.57;;;;;;;;;;5036888;28;20033;-70
2023/10/14 06:35:37;;;;;;;7.65;4.70;;;;;;;;;;5054859;28;20395;-71
2023/10/14 06:38:09;;;;;;;6.82;4.45;;;;;;;;;;5054977;28;20376;-71
2023/10/14 06:40:42;;;;;;;6.00;5.10;;;;;;;;;;5054785;28;20095;-71
2023/10/14 06:43:09;;;;;;;9.35;5.80;;;;;;;;;;5038224;28;20052;-71
2023/10/14 06:45:35;;;;;;;9.35;5.60;;;;;;;;;;5056441;28;20086;-71
2023/10/14 06:48:03;;;;;;;11.52;6.00;;;;;;;;;;5054092;28;20048;-71
2023/10/14 06:50:30;;;;;;;9.05;5.93;;;;;;;;;;5053946;28;20390;-71
2023/10/14 06:52:58;;;;;;;10.15;5.45;;;;;;;;;;5074555;28;20040;-71
2023/10/14 06:55:27;;;;;;;7.35;5.18;;;;;;;;;;5056447;28;20056;-71
2023/10/14 06:57:55;;;;;;;6.53;4.20;;;;;;;;;;5074483;28;20482;-71
2023/10/14 07:00:31;;;;;;;8.05;4.75;;;;;;;;;;5056423;28;20086;-71
2023/10/14 07:02:59;;;;;;;8.85;5.15;;;;;;;;;;5073894;28;20040;-71
2023/10/14 07:05:28;;;;;;;10.70;5.18;;;;;;;;;;5073743;28;20044;-71
2023/10/14 07:07:55;;;;;;;10.50;6.18;;;;;;;;;;5056453;28;20044;-71
2023/10/14 07:10:27;;;;;;;7.97;5.10;;;;;;;;;;5074022;28;20102;-71
2023/10/14 07:12:57;;;;;;;8.43;4.53;;;;;;;;;;5073826;28;20058;-71
2023/10/14 07:15:24;;;;;;;9.55;4.75;;;;;;;;;;5074006;28;20047;-71
2023/10/14 07:17:50;;;;;;;7.43;4.70;;;;;;;;;;5074271;28;20051;-74
2023/10/14 07:20:16;;;;;;;9.52;4.63;;;;;;;;;;5056224;28;20124;-74
2023/10/14 07:22:44;;;;;;;9.18;5.35;;;;;;;;;;5056634;28;20482;-77
2023/10/14 07:25:10;;;;;;;10.38;5.22;;;;;;;;;;5062509;28;20052;-73
2023/10/14 07:27:40;;;;;;;8.57;5.65;;;;;;;;;;5036362;28;20037;-73
2023/10/14 07:30:13;;;;;;;7.85;5.43;;;;;;;;;;5054136;28;20067;-74
2023/10/14 07:32:41;;;;;;;8.93;5.63;;;;;;;;;;5054189;28;20124;-73
2023/10/14 07:35:06;;;;;;;8.85;4.57;;;;;;;;;;5053613;28;20059;-74
2023/10/14 07:37:33;;;;;;;9.18;5.38;;;;;;;;;;5035754;28;20562;-74
2023/10/14 07:40:04;;;;;;;12.93;5.72;;;;;;;;;;5036125;28;20426;-73
2023/10/14 07:42:29;;;;;;;7.43;5.07;;;;;;;;;;5053681;28;20057;-73
2023/10/14 07:44:55;;;;;;;9.40;5.07;;;;;;;;;;5053480;28;20458;-73
2023/10/14 07:47:21;;;;;;;7.72;5.15;;;;;;;;;;5052755;28;20041;-73
2023/10/14 07:49:47;;;;;;;7.75;4.95;;;;;;;;;;5035475;28;20582;-73
2023/10/14 07:52:14;;;;;;;4.90;4.32;;;;;;;;;;5053811;28;20128;-74
2023/10/14 07:54:42;;;;;;;9.27;5.28;;;;;;;;;;5019363;28;20040;-73
2023/10/14 07:57:11;;;;;;;8.50;5.35;;;;;;;;;;5053486;28;20037;-73
2023/10/14 07:59:37;;;;;;;7.60;5.50;;;;;;;;;;5053755;28;20104;-72
2023/10/14 08:02:03;;;;;;;9.45;4.70;;;;;;;;;;5035581;28;20037;-71
2023/10/14 08:04:28;;;;;;;5.88;4.47;;;;;;;;;;5035605;28;20494;-73
2023/10/14 08:06:54;;;;;;;6.03;3.65;;;;;;;;;;5034933;28;20039;-73
2023/10/14 08:09:27;;;;;;;7.18;5.07;;;;;;;;;;5037467;28;20193;-73
2023/10/14 08:11:53;;;;;;;9.23;5.80;;;;;;;;;;5072196;28;20495;-73
2023/10/14 08:14:18;;;;;;;4.25;3.70;;;;;;;;;;5071744;28;20036;-72
2023/10/14 08:16:45;;;;;;;6.05;4.20;;;;;;;;;;5052729;28;20476;-73
2023/10/14 08:19:11;;;;;;;7.95;4.68;;;;;;;;;;5052154;28;20032;-73
2023/10/14 08:21:37;;;;;;;5.10;2.92;;;;;;;;;;5034749;28;20041;-73
2023/10/14 08:24:05;;;;;;;4.97;3.70;;;;;;;;;;5035506;28;20366;-71
2023/10/14 08:26:34;;;;;;;8.32;4.85;;;;;;;;;;5035835;28;20060;-71
2023/10/14 08:29:00;;;;;;;8.98;5.13;;;;;;;;;;5035770;28;20041;-71
2023/10/14 08:31:26;;;;;;;6.78;4.03;;;;;;;;;;5036353;28;20041;-71
2023/10/14 08:33:51;;;;;;;7.53;4.95;;;;;;;;;;5035829;28;20044;-71
2023/10/14 08:36:16;;;;;;;8.43;4.78;;;;;;;;;;5053875;28;20068;-71
2023/10/14 08:38:44;;;;;;;7.72;4.70;;;;;;;;;;5057661;28;20099;-71
2023/10/14 08:41:14;;;;;;;7.75;3.25;;;;;;;;;;5057881;28;20033;-71
2023/10/14 08:43:42;;;;;;;14.00;5.70;;;;;;;;;;5040107;28;20036;-71
2023/10/14 08:46:08;;;;;;;9.25;5.28;;;;;;;;;;5039943;28;20041;-71
2023/10/14 08:48:36;;;;;;;9.30;4.55;;;;;;;;;;5057658;28;20045;-71
2023/10/14 08:51:02;;;;;;;7.93;3.97;;;;;;;;;;5056613;28;20052;-73
2023/10/14 08:53:30;;;;;;;2.65;2.42;;;;;;;;;;5077365;28;20253;-73
2023/10/14 08:55:57;;;;;;;6.03;4.70;;;;;;;;;;5077528;28;20504;-73
2023/10/14 08:58:24;;;;;;;6.35;5.65;;;;;;;;;;5077022;28;20033;-73
2023/10/14 09:00:54;;;;;;;10.05;5.55;;;;;;;;;;5077326;28;20127;-73
2023/10/14 09:03:19;;;;;;;7.53;5.95;;;;;;;;;;5077167;28;20492;-73
2023/10/14 09:05:44;;;;;;;9.68;5.18;;;;;;;;;;5056720;28;20181;-71
2023/10/14 09:08:14;;;;;;;11.13;5.55;;;;;;;;;;5063623;28;20036;-71
2023/10/14 09:10:40;;;;;;;;;;;;;;;;;;5059253;28;20068;-71
2023/10/14 09:13:08;;;;;;;5.18;4.50;;;;;;;;;;5075485;28;19974;-71
2023/10/14 09:15:40;;;;;;;9.57;5.57;;;;;;;;;;5076873;28;20087;-71
2023/10/14 09:18:14;;;;;;;5.70;4.85;;;;;;;;;;5077217;28;20037;-71
2023/10/14 09:20:40;;;;;;;10.65;5.00;;;;;;;;;;5077035;28;20115;-71
2023/10/14 09:23:14;;;;;;;10.30;6.10;;;;;;;;;;5054173;28;20063;-73
2023/10/14 09:25:49;;;;;;;11.10;5.90;;;;;;;;;;5038589;28;20036;-73
2023/10/14 09:28:16;;;;;;;7.88;5.30;;;;;;;;;;5038961;28;20088;-73
2023/10/14 09:30:49;;;;;;;6.40;4.40;;;;;;;;;;5056501;28;20128;-73
2023/10/14 09:33:17;;;;;;;10.77;5.05;;;;;;;;;;5038852;28;20052;-73
2023/10/14 09:35:49;;;;;;;5.78;4.82;;;;;;;;;;5056930;28;20040;-73
2023/10/14 09:38:19;;;;;;;8.25;5.70;;;;;;;;;;5056870;28;20067;-72
2023/10/14 09:41:07;;;;;;;6.93;4.32;;;;;;;;;;5081948;22;20064;-71
2023/10/14 09:43:33;;;;;;;9.32;5.07;;;;;;;;;;5058207;28;20123;-71
2023/10/14 09:46:00;;;;;;;2.13;2.03;;;;;;;;;;5064329;28;20059;-71
2023/10/14 09:48:26;;;;;;;9.65;4.30;;;;;;;;;;5038302;28;20037;-72
2023/10/14 09:51:25;;;;;;;5.93;4.60;;;;;;;;;;5094060;22;20080;-74
2023/10/14 09:53:51;;;;;;;6.47;4.53;;;;;;;;;;5058023;28;20037;-72
2023/10/14 09:56:17;;;;;;;10.88;5.93;;;;;;;;;;5075734;28;20036;-72
2023/10/14 09:58:44;;;;;;;7.90;3.22;;;;;;;;;;5075109;28;20112;-72
2023/10/14 10:01:14;;;;;;;4.95;3.78;;;;;;;;;;5074954;28;20036;-71
2023/10/14 10:03:50;;;;;;;3.65;3.35;;;;;;;;;;5074557;28;20024;-71
2023/10/14 10:06:33;;;;;;;6.22;4.57;;;;;;;;;;5056607;28;20428;-72
2023/10/14 10:09:07;;;;;;;6.38;2.30;;;;;;;;;;5075298;28;20383;-71
2023/10/14 10:11:35;;;;;;;1.52;1.35;;;;;;;;;;5072926;28;20482;-74
2023/10/14 10:14:01;;;;;;;7.70;5.53;;;;;;;;;;5040486;28;20032;-72
2023/10/14 10:16:31;;;;;;;8.43;2.55;;;;;;;;;;5055172;28;20415;-74
2023/10/14 10:18:58;;;;;;;6.72;5.03;;;;;;;;;;5055598;28;20044;-74
2023/10/14 10:21:32;;;;;;;6.85;4.20;;;;;;;;;;5021152;28;20029;-74
2023/10/14 10:24:16;;;;;;;6.13;2.78;;;;;;;;;;5055700;28;20033;-74
2023/10/14 10:27:06;;;;;;;4.82;3.45;;;;;;;;;;5055340;28;20033;-74
2023/10/14 10:29:34;;;;;;;3.20;2.85;;;;;;;;;;5047676;28;20037;-81
2023/10/14 10:32:11;;;;;;;8.38;5.47;;;;;;;;;;5055842;28;20041;-74
2023/10/14 10:34:55;;;;;;;2.05;1.00;;;;;;;;;;5055262;28;20119;-74
2023/10/14 10:37:21;;;;;;;2.97;1.83;;;;;;;;;;5055683;28;20044;-73
2023/10/14 10:39:50;;;;;;;6.75;4.47;;;;;;;;;;5042232;28;20056;-74
2023/10/14 10:42:16;;;;;;;5.43;3.90;;;;;;;;;;5055349;28;20055;-74
2023/10/14 10:44:43;;;;;;;8.30;5.22;;;;;;;;;;5055343;28;20108;-74
2023/10/14 10:47:12;;;;;;;6.07;4.35;;;;;;;;;;5061492;28;20050;-74
2023/10/14 10:49:56;;;;;;;8.82;5.90;;;;;;;;;;5075166;28;20093;-74
2023/10/14 10:52:24;;;;;;;11.40;5.85;;;;;;;;;;5054798;28;20132;-75
2023/10/14 10:54:52;;;;;;;9.27;5.43;;;;;;;;;;5054866;28;20033;-75
2023/10/14 10:57:18;;;;;;;5.97;3.67;;;;;;;;;;5020318;28;20029;-74
2023/10/14 10:59:46;;;;;;;7.97;5.15;;;;;;;;;;5036918;28;20049;-75
2023/10/14 11:02:13;;;;;;;7.28;4.43;;;;;;;;;;5054725;28;20111;-76
2023/10/14 11:04:39;;;;;;;6.30;3.40;;;;;;;;;;5022670;28;20498;-73
2023/10/14 11:07:08;;;;;;;6.75;4.55;;;;;;;;;;5054854;28;20110;-73
2023/10/14 11:09:40;;;;;;;6.70;4.00;;;;;;;;;;5036720;28;20048;-73
2023/10/14 11:12:09;;;;;;;6.80;4.68;;;;;;;;;;5054800;28;20351;-73
2023/10/14 11:14:35;;;;;;;7.72;4.80;;;;;;;;;;5036607;28;20036;-74
2023/10/14 11:17:01;;;;;;;7.20;4.95;;;;;;;;;;5020043;28;20399;-74
2023/10/14 11:19:30;;;;;;;7.50;4.45;;;;;;;;;;5036824;28;20037;-75
2023/10/14 11:21:58;;;;;;;5.40;4.45;;;;;;;;;;5036395;28;20037;-78
2023/10/14 11:24:25;;;;;;;4.78;3.35;;;;;;;;;;5053491;28;20120;-77
2023/10/14 11:26:51;;;;;;;9.32;5.25;;;;;;;;;;5036127;28;20438;-77
2023/10/14 11:29:16;;;;;;;5.30;4.10;;;;;;;;;;5054098;28;20074;-77
2023/10/14 11:31:45;;;;;;;12.75;6.15;;;;;;;;;;5054155;28;20375;-77
2023/10/14 11:34:11;;;;;;;4.10;2.75;;;;;;;;;;5036418;28;20036;-77
2023/10/14 11:36:41;;;;;;;4.35;3.78;;;;;;;;;;5054013;28;20516;-77
2023/10/14 11:39:12;;;;;;;7.20;5.45;;;;;;;;;;5035988;28;20037;-77
2023/10/14 11:41:38;;;;;;;5.20;4.70;;;;;;;;;;5036035;28;20064;-77
2023/10/14 11:44:04;;;;;;;8.63;5.10;;;;;;;;;;5035772;28;20071;-77
2023/10/14 11:46:29;;;;;;;8.45;4.90;;;;;;;;;;5053915;28;20048;-77
2023/10/14 11:48:55;;;;;;;6.43;4.90;;;;;;;;;;5054349;28;20033;-77
2023/10/14 11:51:21;;;;;;;6.50;4.20;;;;;;;;;;5035672;28;20044;-77
2023/10/14 11:53:50;;;;;;;9.80;4.80;;;;;;;;;;5053844;28;20045;-77
2023/10/14 11:56:16;;;;;;;5.43;3.97;;;;;;;;;;5035371;28;20036;-77
2023/10/14 11:58:42;;;;;;;5.78;4.75;;;;;;;;;;5035598;28;20040;-77
2023/10/14 12:01:09;;;;;;;7.18;4.95;;;;;;;;;;5035933;28;20025;-78
2023/10/14 12:03:35;;;;;;;7.82;4.65;;;;;;;;;;5053821;28;20108;-75
2023/10/14 12:06:11;;;;;;;6.97;4.88;;;;;;;;;;5053881;28;20040;-75
2023/10/14 12:08:37;;;;;;;6.38;4.65;;;;;;;;;;5053536;28;20047;-75
2023/10/14 12:14:12;;;;;;;9.45;4.70;;;;;;;;;;5053404;22;20502;-75
2023/10/14 12:16:37;;;;;;;6.22;4.88;;;;;;;;;;5062869;28;20049;-75
2023/10/14 12:19:04;;;;;;;5.97;4.85;;;;;;;;;;5081426;28;20382;-78
2023/10/14 12:21:29;;;;;;;8.70;5.25;;;;;;;;;;5093962;28;20046;-75
2023/10/14 12:24:00;;;;;;;9.68;5.47;;;;;;;;;;5075562;28;20110;-77
2023/10/14 12:26:30;;;;;;;8.18;4.93;;;;;;;;;;5093630;28;20497;-75
2023/10/14 12:28:55;;;;;;;9.25;5.28;;;;;;;;;;5058456;28;20078;-75
2023/10/14 12:31:23;;;;;;;8.23;5.05;;;;;;;;;;5075888;28;20048;-75
2023/10/14 12:33:50;;;;;;;9.25;4.22;;;;;;;;;;5093549;28;20047;-76
2023/10/14 12:36:17;;;;;;;8.80;5.05;;;;;;;;;;5075410;28;20036;-77
2023/10/14 12:38:42;;;;;;;9.32;4.97;;;;;;;;;;5058885;28;20107;-77
2023/10/14 12:41:10;;;;;;;7.18;4.97;;;;;;;;;;5093667;28;20075;-76
2023/10/14 12:43:42;;;;;;;9.02;5.28;;;;;;;;;;5093398;28;20051;-75
2023/10/14 12:48:43;;;;;;;4.55;3.65;;;;;;;;;;5075324;28;20040;-75
2023/10/14 12:51:11;;;;;;;5.50;3.47;;;;;;;;;;5075429;28;20386;-76
2023/10/14 12:53:38;;;;;;;6.18;3.88;;;;;;;;;;5075817;28;20072;-75
2023/10/14 12:56:07;;;;;;;9.48;5.22;;;;;;;;;;5074838;28;20040;-77
2023/10/14 12:58:35;;;;;;;7.15;4.97;;;;;;;;;;5093699;28;20371;-76
2023/10/14 13:01:05;;;;;;;4.75;2.67;;;;;;;;;;5093374;28;20036;-78
2023/10/14 13:03:32;;;;;;;11.02;4.88;;;;;;;;;;5093764;28;20043;-77
2023/10/14 13:05:57;;;;;;;10.25;4.55;;;;;;;;;;5088090;28;20032;-77
2023/10/14 13:08:23;;;;;;;8.73;5.07;;;;;;;;;;5075958;28;20029;-78
2023/10/14 13:10:49;;;;;;;7.63;4.65;;;;;;;;;;5093668;28;20036;-77
2023/10/14 13:13:15;;;;;;;7.47;4.38;;;;;;;;;;5093108;28;20470;-75
2023/10/14 13:15:40;;;;;;;5.95;4.80;;;;;;;;;;5093232;28;20043;-77
2023/10/14 13:18:06;;;;;;;8.10;4.78;;;;;;;;;;5093636;28;20063;-77
2023/10/14 13:20:35;;;;;;;4.70;3.78;;;;;;;;;;5093468;28;20512;-77
2023/10/14 13:23:07;;;;;;;9.02;5.45;;;;;;;;;;5074692;28;20475;-77
2023/10/14 13:25:36;;;;;;;9.05;5.15;;;;;;;;;;5058203;28;20040;-76
2023/10/14 13:28:08;;;;;;;7.25;4.78;;;;;;;;;;5076065;28;20526;-77
2023/10/14 13:30:49;;;;;;;6.82;4.82;;;;;;;;;;5075928;28;20037;-78
2023/10/14 13:33:16;;;;;;;;;;;;;;;;;;5057831;28;20032;-77
2023/10/14 13:35:42;;;;;;;9.77;5.07;;;;;;;;;;5075592;28;19908;-78
2023/10/14 13:38:11;;;;;;;9.25;5.80;;;;;;;;;;5058059;28;20609;-77
2023/10/14 13:40:38;;;;;;;7.40;4.90;;;;;;;;;;5075837;28;20090;-77
2023/10/14 13:43:03;;;;;;;7.05;5.15;;;;;;;;;;5058058;28;20094;-78
2023/10/14 13:45:30;;;;;;;9.55;5.75;;;;;;;;;;5059066;28;20033;-76
2023/10/14 13:47:56;;;;;;;6.93;4.82;;;;;;;;;;5075931;28;20356;-76
2023/10/14 13:50:21;;;;;;;8.60;4.95;;;;;;;;;;5076043;28;20043;-75
2023/10/14 13:52:57;;;;;;;5.68;5.03;;;;;;;;;;5058863;28;20068;-75
2023/10/14 13:55:23;;;;;;;8.32;4.82;;;;;;;;;;5057885;28;20035;-75
2023/10/14 13:57:49;;;;;;;4.03;3.38;;;;;;;;;;5041197;28;20029;-76
2023/10/14 14:00:19;;;;;;;7.97;5.22;;;;;;;;;;5057891;28;20056;-76
2023/10/14 14:02:47;;;;;;;8.00;4.78;;;;;;;;;;5075662;28;20060;-76
2023/10/14 14:05:13;;;;;;;6.45;5.22;;;;;;;;;;5075885;28;20032;-75
2023/10/14 14:07:39;;;;;;;6.38;4.80;;;;;;;;;;5075724;28;20543;-75
2023/10/14 14:10:05;;;;;;;8.45;5.10;;;;;;;;;;5075875;28;20430;-75
2023/10/14 14:12:32;;;;;;;6.15;5.32;;;;;;;;;;5076048;28;20388;-76
2023/10/14 14:14:57;;;;;;;5.63;4.45;;;;;;;;;;5075296;28;20475;-76
2023/10/14 14:17:25;;;;;;;6.38;5.10;;;;;;;;;;5057777;28;20047;-75
2023/10/14 14:19:51;;;;;;;8.18;4.75;;;;;;;;;;5075571;28;20124;-76
2023/10/14 14:22:41;;;;;;;8.70;4.88;;;;;;;;;;5070735;22;20530;-73
2023/10/14 14:28:12;;;;;;;7.57;5.05;;;;;;;;;;5035839;28;20040;-74
2023/10/14 14:30:41;;;;;;;8.27;4.97;;;;;;;;;;5035221;28;20037;-72
2023/10/14 14:36:26;;;;;;;6.60;4.82;;;;;;;;;;5093969;22;20064;-73
2023/10/14 14:38:52;;;;;;;6.60;4.75;;;;;;;;;;5074912;28;20055;-72
2023/10/14 14:41:25;;;;;;;6.80;4.43;;;;;;;;;;5057510;28;20485;-73
2023/10/14 14:43:51;;;;;;;8.73;5.25;;;;;;;;;;5092910;28;20115;-73
2023/10/14 14:46:17;;;;;;;8.75;6.00;;;;;;;;;;5093027;28;20455;-73
2023/10/14 14:48:42;;;;;;;7.32;4.05;;;;;;;;;;5093924;28;20036;-71
2023/10/14 14:51:08;;;;;;;10.43;5.20;;;;;;;;;;5094400;28;20478;-71
2023/10/14 14:53:33;;;;;;;9.63;6.18;;;;;;;;;;5075924;28;20070;-72
2023/10/14 14:56:00;;;;;;;8.30;5.80;;;;;;;;;;5095095;28;20046;-73
2023/10/14 14:58:26;;;;;;;7.03;5.22;;;;;;;;;;5076852;28;20043;-73
2023/10/14 15:00:51;;;;;;;5.85;4.03;;;;;;;;;;5077239;28;20046;-73
2023/10/14 15:03:17;;;;;;;5.93;4.43;;;;;;;;;;5094935;28;20436;-73
2023/10/14 15:05:42;;;;;;;6.25;5.03;;;;;;;;;;5054627;28;20127;-73
2023/10/14 15:08:12;;;;;;;7.47;4.40;;;;;;;;;;5074582;28;20041;-73
2023/10/14 15:10:42;;;;;;;5.82;4.68;;;;;;;;;;5057010;28;20048;-72
2023/10/14 15:13:10;;;;;;;5.78;4.68;;;;;;;;;;5057784;28;20040;-71
2023/10/14 15:15:35;;;;;;;6.90;4.55;;;;;;;;;;5074083;28;20040;-74
2023/10/14 15:18:02;;;;;;;6.30;4.63;;;;;;;;;;5074675;28;20087;-73
2023/10/14 15:20:28;;;;;;;7.18;4.63;;;;;;;;;;5074419;28;20032;-74
2023/10/14 15:22:54;;;;;;;5.45;4.07;;;;;;;;;;5094540;28;20047;-73
2023/10/14 15:25:19;;;;;;;7.95;4.55;;;;;;;;;;5094408;28;20036;-71
2023/10/14 15:27:45;;;;;;;10.35;5.55;;;;;;;;;;5094652;28;20115;-71
2023/10/14 15:30:12;;;;;;;9.93;5.32;;;;;;;;;;5094542;28;20046;-72
2023/10/14 15:32:45;;;;;;;6.90;4.95;;;;;;;;;;5076016;28;20036;-71